White Oak, PA

10:06 AM EST on February 28, 2015 (GMT -0500)
Mckeesport | Change Station
CLOSE
Current Station
Personal Weather Station
Location: McKeesport, PA
Elevation: 1148 ft
Nearby Weather Stations

Elev 1148 ft 40.32 °N, 79.81 °W | Updated 5 minutes ago

Clear
Clear
16.5 °F
Feels Like 16 °F
N
1.0
Wind Variable Wind from SSE
Gusts 2.0 mph

Today
High -- | Low -- °F
--% Chance of Precip.
Yesterday
High -- | Low -- °F
Precip. -- in
6:54 AM 6:09 PM
Waxing Gibbous, 78% visible
Pressure 30.84 in
Visibility 10.0 miles
Clouds Clear
Windchill 16 °F
Dew Point 4 °F
Humidity 58%
Rainfall 0.00 in
Snow Depth Not available.
UV 3 out of 12
Pollen .50 out of 12
Air Quality Not available.
Flu Activity Not available.
METAR KAGC 281453Z 13006KT 10SM CLR M11/M20 A3074 RMK AO2 SLP442 T11061200 53018

More Conditions Fewer Conditions

Pressure 30.84 in
Visibility 10.0 miles
Clouds Clear
Windchill 16 °F
Dew Point 4 °F
Humidity 58%
Rainfall 0.00 in
Snow Depth Not available.
UV 3 out of 12
Pollen .50 out of 12
Air Quality Not available.
Flu Activity Not available.
METAR KAGC 281453Z 13006KT 10SM CLR M11/M20 A3074 RMK AO2 SLP442 T11061200 53018

More Conditions Fewer Conditions

10-Day Weather Forecast

Almanac

Astronomy

Feb. 28, 2015 Rise Set
Actual Time
Civil Twilight
Nautical Twilight
Astronomical Twilight
Moon
Length of Visible Light
Length of Day
Tomorrow will be .
, % of the Moon is Illuminated

Today's Extremes

State Highs State Lows

Community

WunderPhotos

Upload Photos

1,801,030 photos uploaded!

WunderBlogs® & News

Nearby

Air Quality

  Air Quality AQ Index Pollutant
Not available.

Snow Depth

Station Depth Elevation

Earthquake Activity

City Distance Mag. Time & Date
Minimum magnitude displayed is 2.5.

Coastal Water Temperatures

Place Temperature

Nearby Weather Stations